createdAt,value
2019-03-06T00:00:30.394Z,8.17
2019-03-06T00:02:58.838Z,7.43
2019-03-06T00:05:27.365Z,5.77
2019-03-06T00:07:55.976Z,7.23
2019-03-06T00:10:29.012Z,10.50
2019-03-06T00:12:59.405Z,9.90
2019-03-06T00:15:27.839Z,12.37
2019-03-06T00:17:56.352Z,6.70
2019-03-06T00:20:24.753Z,7.63
2019-03-06T00:22:53.176Z,7.77
2019-03-06T00:25:21.640Z,8.53
2019-03-06T00:27:50.096Z,7.70
2019-03-06T00:30:19.955Z,9.33
2019-03-06T00:32:48.449Z,8.70
2019-03-06T00:35:21.312Z,13.57
2019-03-06T00:37:49.891Z,10.20
2019-03-06T00:40:26.394Z,8.50
2019-03-06T00:42:55.180Z,9.97
2019-03-06T00:45:23.580Z,8.90
2019-03-06T00:47:52.041Z,8.23
2019-03-06T00:50:20.573Z,8.63
2019-03-06T00:52:49.130Z,9.63
2019-03-06T00:55:17.731Z,16.30
2019-03-06T00:57:46.144Z,15.57
2019-03-06T01:00:19.281Z,10.30
2019-03-06T01:02:49.275Z,9.37
2019-03-06T01:05:18.235Z,12.73
2019-03-06T01:07:46.800Z,10.73
2019-03-06T01:10:16.377Z,12.23
2019-03-06T01:12:44.904Z,11.80
2019-03-06T01:15:17.854Z,8.67
2019-03-06T01:17:46.329Z,10.60
2019-03-06T01:20:16.215Z,11.80
2019-03-06T01:22:45.127Z,12.00
2019-03-06T01:25:18.846Z,11.70
2019-03-06T01:27:47.389Z,16.43
2019-03-06T01:30:19.089Z,13.70
2019-03-06T01:32:49.278Z,14.73
2019-03-06T01:35:31.522Z,12.97
2019-03-06T01:38:13.600Z,15.40
2019-03-06T01:40:49.458Z,10.87
2019-03-06T01:43:19.539Z,13.03
2019-03-06T01:45:48.175Z,11.17
2019-03-06T01:48:16.690Z,17.63
2019-03-06T01:50:45.175Z,17.47
2019-03-06T01:53:13.678Z,18.20
2019-03-06T01:55:43.617Z,12.87
2019-03-06T01:58:12.019Z,14.47
2019-03-06T02:00:41.182Z,13.60
2019-03-06T02:03:09.803Z,14.50
2019-03-06T02:05:38.309Z,14.90
2019-03-06T02:08:07.586Z,13.50
2019-03-06T02:10:36.108Z,15.93
2019-03-06T02:13:06.923Z,13.37
2019-03-06T02:15:35.408Z,13.07
2019-03-06T02:18:03.885Z,16.27
2019-03-06T02:20:32.330Z,15.53
2019-03-06T02:23:00.757Z,14.47
2019-03-06T02:25:29.346Z,15.23
2019-03-06T02:27:57.879Z,14.53
2019-03-06T02:30:27.378Z,18.90
2019-03-06T02:32:55.818Z,19.20
2019-03-06T02:35:24.243Z,13.90
2019-03-06T02:37:53.153Z,14.80
2019-03-06T02:40:21.579Z,16.73
2019-03-06T02:42:50.051Z,15.97
2019-03-06T02:45:19.987Z,15.53
2019-03-06T02:47:48.438Z,13.57
2019-03-06T02:50:18.285Z,18.10
2019-03-06T02:52:46.779Z,12.87
2019-03-06T02:55:17.525Z,14.83
2019-03-06T02:57:59.426Z,12.70
2019-03-06T03:00:31.909Z,17.17
2019-03-06T03:03:04.685Z,14.07
2019-03-06T03:05:34.739Z,15.47
2019-03-06T03:08:03.255Z,14.83
2019-03-06T03:10:31.689Z,13.17
2019-03-06T03:13:00.644Z,14.70
2019-03-06T03:15:29.103Z,15.03
2019-03-06T03:17:57.577Z,17.50
2019-03-06T03:20:26.031Z,23.43
2019-03-06T03:22:54.445Z,19.77
2019-03-06T03:25:23.030Z,13.83
2019-03-06T03:27:51.506Z,18.70
2019-03-06T03:30:19.935Z,20.53
2019-03-06T03:32:48.435Z,14.17
2019-03-06T03:35:16.930Z,16.33
2019-03-06T03:37:45.453Z,14.07
2019-03-06T03:40:17.269Z,18.40
2019-03-06T03:42:45.727Z,14.57
2019-03-06T03:45:16.472Z,17.03
2019-03-06T03:47:44.960Z,17.03
2019-03-06T03:50:13.454Z,13.17
2019-03-06T03:52:42.432Z,15.67
2019-03-06T03:55:16.824Z,17.47
2019-03-06T03:57:45.220Z,15.00
2019-03-06T04:00:18.992Z,16.70
2019-03-06T04:02:47.816Z,14.83
2019-03-06T04:05:16.314Z,11.77
2019-03-06T04:07:44.708Z,11.97
2019-03-06T04:10:14.677Z,12.30
2019-03-06T04:12:43.133Z,12.87
2019-03-06T04:15:16.767Z,11.97
2019-03-06T04:17:45.321Z,14.00
2019-03-06T04:20:15.043Z,14.23
2019-03-06T04:22:44.099Z,12.80
2019-03-06T04:25:13.163Z,11.97
2019-03-06T04:27:41.672Z,8.40
2019-03-06T04:30:18.384Z,11.27
2019-03-06T04:32:46.817Z,14.50
2019-03-06T04:35:15.703Z,8.90
2019-03-06T04:37:44.252Z,11.50
2019-03-06T04:40:16.278Z,10.23
2019-03-06T04:42:44.790Z,9.63
2019-03-06T04:45:15.335Z,10.10
2019-03-06T04:47:43.860Z,12.80
2019-03-06T04:50:13.709Z,12.37
2019-03-06T04:52:42.503Z,14.97
2019-03-06T04:55:12.298Z,9.07
2019-03-06T04:57:40.773Z,12.13
2019-03-06T05:00:17.362Z,11.73
2019-03-06T05:02:45.872Z,13.87
2019-03-06T05:05:14.414Z,12.37
2019-03-06T05:07:42.818Z,13.50
2019-03-06T05:10:12.980Z,16.03
2019-03-06T05:12:41.463Z,16.40
2019-03-06T05:15:17.480Z,18.53
2019-03-06T05:17:59.842Z,17.67
2019-03-06T05:20:28.340Z,15.90
2019-03-06T05:22:56.847Z,17.80
2019-03-06T05:25:25.287Z,17.23
2019-03-06T05:27:53.746Z,15.43
2019-03-06T05:30:23.805Z,14.73
2019-03-06T05:32:55.493Z,16.00
2019-03-06T05:35:29.937Z,16.50
2019-03-06T05:38:07.122Z,15.03
2019-03-06T05:40:35.596Z,16.70
2019-03-06T05:43:04.082Z,15.30
2019-03-06T05:45:32.508Z,17.57
2019-03-06T05:48:01.550Z,13.27
2019-03-06T05:50:29.956Z,15.73
2019-03-06T05:52:58.444Z,18.17
2019-03-06T05:55:26.903Z,19.87
2019-03-06T05:57:55.324Z,14.27
2019-03-06T06:00:25.773Z,16.33
2019-03-06T06:02:54.284Z,19.23
2019-03-06T06:05:24.359Z,18.37
2019-03-06T06:07:52.813Z,14.53
2019-03-06T06:10:21.399Z,17.13
2019-03-06T06:12:50.203Z,14.50
2019-03-06T06:15:18.701Z,14.97
2019-03-06T06:17:47.135Z,15.33
2019-03-06T06:20:16.395Z,13.37
2019-03-06T06:22:55.541Z,15.47
2019-03-06T06:25:23.970Z,14.23
2019-03-06T06:27:52.415Z,19.10
2019-03-06T06:30:22.111Z,15.17
2019-03-06T06:32:50.807Z,16.77
2019-03-06T06:35:19.267Z,12.63
2019-03-06T06:37:47.694Z,13.60
2019-03-06T06:40:16.234Z,15.23
2019-03-06T06:42:44.674Z,13.43
2019-03-06T06:45:17.637Z,12.10
2019-03-06T06:48:05.539Z,13.67
2019-03-06T06:50:33.972Z,14.57
2019-03-06T06:53:19.065Z,12.37
2019-03-06T06:56:05.902Z,11.00
2019-03-06T06:58:55.386Z,15.07
2019-03-06T07:01:31.343Z,12.80
2019-03-06T07:04:22.311Z,13.33
2019-03-06T07:06:58.063Z,14.67
2019-03-06T07:09:31.439Z,12.50
2019-03-06T07:12:01.526Z,15.67
2019-03-06T07:14:31.617Z,12.37
2019-03-06T07:17:16.884Z,16.53
2019-03-06T07:19:49.385Z,15.50
2019-03-06T07:22:25.647Z,13.17
2019-03-06T07:24:59.015Z,10.33
2019-03-06T07:27:29.247Z,15.23
2019-03-06T07:30:16.615Z,14.07
2019-03-06T07:32:47.112Z,16.37
2019-03-06T07:35:58.006Z,16.73
2019-03-06T07:38:26.521Z,13.87
2019-03-06T07:41:12.806Z,13.43
2019-03-06T07:43:49.197Z,15.67
2019-03-06T07:46:25.852Z,14.43
2019-03-06T07:49:13.093Z,15.33
2019-03-06T07:51:45.652Z,15.83
2019-03-06T07:54:15.794Z,15.23
2019-03-06T07:56:50.202Z,15.03
2019-03-06T07:59:18.892Z,14.40
2019-03-06T08:02:08.579Z,16.43
2019-03-06T08:04:38.076Z,13.53
2019-03-06T08:07:08.627Z,16.77
2019-03-06T08:09:37.027Z,15.40
2019-03-06T08:12:20.165Z,15.10
2019-03-06T08:15:06.115Z,12.20
2019-03-06T08:17:38.642Z,15.33
2019-03-06T08:20:25.859Z,16.27
2019-03-06T08:22:58.656Z,13.63
2019-03-06T08:25:44.002Z,18.40
2019-03-06T08:28:14.038Z,16.97
2019-03-06T08:31:00.584Z,16.87
2019-03-06T08:33:29.044Z,15.17
2019-03-06T08:35:57.455Z,18.70
2019-03-06T08:38:26.025Z,13.50
2019-03-06T08:41:03.585Z,17.37
2019-03-06T08:43:24.648Z,18.07
2019-03-06T08:46:00.689Z,18.10
2019-03-06T08:48:30.866Z,16.40
2019-03-06T08:51:01.012Z,15.37
2019-03-06T08:53:48.886Z,19.07
2019-03-06T08:56:18.969Z,15.17
2019-03-06T08:59:07.417Z,17.67
2019-03-06T09:01:38.133Z,14.50
2019-03-06T09:04:18.354Z,14.73
2019-03-06T09:06:54.700Z,14.77
2019-03-06T09:09:24.950Z,18.87
2019-03-06T09:11:55.477Z,16.03
2019-03-06T09:14:31.312Z,13.90
2019-03-06T09:17:01.357Z,14.83
2019-03-06T09:19:31.409Z,11.60
2019-03-06T09:22:18.000Z,12.40
2019-03-06T09:25:06.489Z,17.57
2019-03-06T09:27:36.591Z,12.60
2019-03-06T09:30:21.658Z,14.97
2019-03-06T09:32:51.817Z,12.47
2019-03-06T09:35:37.580Z,12.17
2019-03-06T09:38:22.858Z,14.37
2019-03-06T09:41:09.295Z,13.10
2019-03-06T09:43:42.149Z,12.87
2019-03-06T09:46:14.863Z,11.83
2019-03-06T09:49:01.632Z,11.57
2019-03-06T09:51:43.464Z,13.90
2019-03-06T09:54:16.006Z,14.37
2019-03-06T09:56:58.515Z,9.57
2019-03-06T09:59:28.599Z,10.77
2019-03-06T10:02:07.571Z,8.83
2019-03-06T10:04:37.642Z,10.57
2019-03-06T10:07:23.127Z,12.07
2019-03-06T10:10:01.931Z,12.10
2019-03-06T10:12:32.014Z,10.07
2019-03-06T10:15:04.512Z,9.57
2019-03-06T10:17:46.446Z,6.93
2019-03-06T10:20:24.790Z,7.13
2019-03-06T10:22:49.006Z,12.97
2019-03-06T10:25:17.627Z,10.20
2019-03-06T10:27:46.155Z,8.77
2019-03-06T10:30:18.686Z,7.60
2019-03-06T10:32:47.083Z,9.23
2019-03-06T10:35:17.044Z,8.30
2019-03-06T10:37:46.200Z,9.67
2019-03-06T10:40:19.373Z,10.03
2019-03-06T10:42:47.898Z,11.17
2019-03-06T10:45:17.817Z,9.30
2019-03-06T10:47:46.967Z,7.17
2019-03-06T10:50:26.366Z,7.07
2019-03-06T10:52:49.651Z,6.83
2019-03-06T10:55:19.941Z,7.93
2019-03-06T10:57:49.084Z,9.97
2019-03-06T11:00:30.869Z,5.97
2019-03-06T11:03:00.363Z,9.53
2019-03-06T11:05:30.674Z,5.27
2019-03-06T11:08:01.109Z,8.83
2019-03-06T11:10:32.590Z,7.43
2019-03-06T11:13:03.757Z,5.97
2019-03-06T11:15:32.639Z,5.87
2019-03-06T11:18:01.976Z,4.97
2019-03-06T11:20:33.447Z,4.87
2019-03-06T11:23:11.002Z,7.00
2019-03-06T11:25:41.180Z,4.67
2019-03-06T11:28:12.615Z,3.93
2019-03-06T11:30:50.487Z,6.27
2019-03-06T11:33:21.031Z,5.30
2019-03-06T11:35:50.092Z,8.10
2019-03-06T11:38:19.202Z,4.73
2019-03-06T11:40:47.850Z,7.10
2019-03-06T11:43:16.267Z,5.27
2019-03-06T11:45:44.827Z,8.57
2019-03-06T11:48:14.693Z,6.13
2019-03-06T11:50:44.213Z,5.63
2019-03-06T11:53:12.769Z,8.33
2019-03-06T11:55:41.439Z,6.93
2019-03-06T11:58:12.912Z,8.13
2019-03-06T12:00:45.340Z,4.77
2019-03-06T12:03:15.608Z,7.27
2019-03-06T12:05:44.739Z,4.93
2019-03-06T12:08:18.179Z,8.03
2019-03-06T12:10:46.944Z,7.63
2019-03-06T12:13:17.299Z,9.30
2019-03-06T12:15:50.740Z,5.23
2019-03-06T12:18:21.113Z,6.03
2019-03-06T12:20:49.624Z,5.03
2019-03-06T12:23:18.119Z,4.93
2019-03-06T12:25:46.618Z,5.33
2019-03-06T12:28:15.455Z,5.53
2019-03-06T12:30:44.072Z,4.90
2019-03-06T12:33:15.553Z,6.93
2019-03-06T12:35:43.994Z,5.00
2019-03-06T12:38:12.615Z,7.73
2019-03-06T12:40:41.149Z,7.60
2019-03-06T12:43:09.632Z,5.40
2019-03-06T12:45:38.661Z,7.60
2019-03-06T12:48:16.431Z,5.83
2019-03-06T12:50:54.073Z,5.80
2019-03-06T12:53:15.822Z,7.43
2019-03-06T12:55:44.274Z,4.20
2019-03-06T12:58:12.686Z,6.60
2019-03-06T13:00:41.293Z,5.00
2019-03-06T13:03:09.781Z,4.33
2019-03-06T13:05:38.357Z,4.43
2019-03-06T13:08:06.785Z,7.23
2019-03-06T13:10:35.366Z,6.27
2019-03-06T13:13:03.992Z,5.50
2019-03-06T13:15:32.691Z,7.27
2019-03-06T13:18:01.160Z,4.57
2019-03-06T13:20:29.628Z,3.70
2019-03-06T13:22:58.088Z,5.20
2019-03-06T13:25:26.553Z,5.70
2019-03-06T13:27:56.873Z,5.30
2019-03-06T13:30:26.768Z,4.30
2019-03-06T13:33:02.360Z,5.60
2019-03-06T13:35:32.507Z,4.73
2019-03-06T13:38:01.022Z,9.10
2019-03-06T13:40:29.559Z,6.17
2019-03-06T13:42:58.258Z,7.77
2019-03-06T13:45:26.828Z,6.80
2019-03-06T13:47:55.323Z,5.80
2019-03-06T13:50:24.685Z,7.97
2019-03-06T13:52:53.495Z,6.53
2019-03-06T13:55:21.923Z,6.80
2019-03-06T13:57:50.556Z,5.67
2019-03-06T14:00:21.921Z,5.67
2019-03-06T14:02:52.230Z,5.53
2019-03-06T14:05:21.553Z,4.70
2019-03-06T14:07:56.274Z,6.23
2019-03-06T14:10:23.316Z,7.80
2019-03-06T14:12:52.681Z,5.17
2019-03-06T14:15:22.467Z,6.63
2019-03-06T14:17:52.362Z,5.20
2019-03-06T14:20:22.624Z,5.67
2019-03-06T14:22:52.374Z,3.93
2019-03-06T14:25:22.734Z,4.90
2019-03-06T14:27:51.225Z,6.97
2019-03-06T14:30:22.704Z,5.77
2019-03-06T14:32:52.002Z,6.23
2019-03-06T14:35:21.064Z,5.90
2019-03-06T14:37:49.650Z,6.17
2019-03-06T14:40:32.204Z,6.43
2019-03-06T14:43:02.816Z,4.87
2019-03-06T14:45:31.439Z,6.83
2019-03-06T14:47:59.982Z,5.87
2019-03-06T14:50:28.930Z,8.37
2019-03-06T14:52:57.859Z,7.23
2019-03-06T14:55:26.357Z,5.43
2019-03-06T14:57:54.936Z,6.23
2019-03-06T15:00:23.382Z,8.07
2019-03-06T15:02:51.806Z,7.13
2019-03-06T15:05:20.840Z,6.60
2019-03-06T15:07:49.445Z,8.73
2019-03-06T15:10:18.925Z,3.60
2019-03-06T15:12:47.650Z,4.27
2019-03-06T15:15:21.067Z,3.67
2019-03-06T15:17:49.487Z,3.20
2019-03-06T15:20:24.132Z,3.40
2019-03-06T15:22:56.861Z,3.50
2019-03-06T15:25:27.401Z,3.40
2019-03-06T15:27:56.075Z,7.53
2019-03-06T15:30:24.530Z,5.60
2019-03-06T15:32:53.008Z,4.47
2019-03-06T15:35:22.363Z,3.27
2019-03-06T15:37:50.898Z,3.40
2019-03-06T15:40:32.195Z,4.20
2019-03-06T15:43:00.947Z,6.90
2019-03-06T15:45:32.917Z,7.20
2019-03-06T15:48:01.837Z,4.53
2019-03-06T15:50:30.403Z,5.10
2019-03-06T15:52:58.892Z,5.33
2019-03-06T15:55:31.049Z,3.80
2019-03-06T15:57:59.486Z,3.43
2019-03-06T16:00:35.233Z,5.40
2019-03-06T16:03:06.711Z,4.17
2019-03-06T16:05:35.963Z,6.50
2019-03-06T16:08:05.763Z,3.57
2019-03-06T16:10:34.354Z,5.57
2019-03-06T16:13:03.911Z,4.40
2019-03-06T16:15:32.531Z,2.90
2019-03-06T16:18:03.855Z,4.70
2019-03-06T16:20:32.477Z,5.30
2019-03-06T16:23:03.485Z,3.83
2019-03-06T16:25:36.651Z,3.67
2019-03-06T16:28:05.515Z,5.40
2019-03-06T16:31:25.208Z,5.50
2019-03-06T16:33:53.807Z,3.90
2019-03-06T16:36:22.340Z,6.07
2019-03-06T16:38:50.770Z,5.87
2019-03-06T16:41:19.253Z,4.10
2019-03-06T16:43:47.714Z,7.67
2019-03-06T16:46:16.201Z,7.60
2019-03-06T16:48:44.634Z,4.90
2019-03-06T16:51:14.294Z,7.47
2019-03-06T16:53:45.168Z,5.93
2019-03-06T16:56:13.677Z,5.90
2019-03-06T16:58:42.194Z,5.00
2019-03-06T17:01:10.803Z,6.30
2019-03-06T17:03:39.306Z,8.73
2019-03-06T17:06:07.917Z,4.73
2019-03-06T17:08:36.344Z,6.30
2019-03-06T17:11:04.912Z,5.17
2019-03-06T17:13:33.340Z,7.27
2019-03-06T17:16:01.796Z,8.60
2019-03-06T17:18:30.280Z,5.50
2019-03-06T17:20:58.693Z,8.83
2019-03-06T17:23:27.207Z,8.90
2019-03-06T17:25:55.740Z,8.10
2019-03-06T17:28:24.194Z,6.10
2019-03-06T17:30:52.835Z,8.87
2019-03-06T17:33:21.813Z,7.27
2019-03-06T17:35:50.315Z,7.73
2019-03-06T17:38:19.587Z,6.77
2019-03-06T17:40:48.236Z,8.90
2019-03-06T17:43:16.669Z,8.10
2019-03-06T17:45:45.238Z,6.93
2019-03-06T17:48:13.962Z,7.40
2019-03-06T17:50:42.544Z,5.87
2019-03-06T17:53:11.135Z,7.60
2019-03-06T17:55:39.573Z,9.47
2019-03-06T17:58:08.118Z,7.70
2019-03-06T18:00:44.966Z,7.77
2019-03-06T18:03:17.994Z,6.53
2019-03-06T18:05:46.413Z,8.57
2019-03-06T18:08:14.871Z,9.23
2019-03-06T18:10:43.701Z,6.47
2019-03-06T18:13:12.657Z,7.83
2019-03-06T18:15:41.199Z,10.50
2019-03-06T18:18:09.842Z,8.47
2019-03-06T18:20:38.321Z,5.43
2019-03-06T18:23:06.814Z,7.23
2019-03-06T18:25:35.285Z,6.30
2019-03-06T18:28:04.279Z,9.63
2019-03-06T18:30:32.807Z,10.30
2019-03-06T18:33:01.238Z,7.57
2019-03-06T18:35:31.116Z,8.03
2019-03-06T18:37:59.601Z,5.77
2019-03-06T18:40:28.492Z,10.17
2019-03-06T18:42:57.033Z,6.90
2019-03-06T18:45:25.485Z,7.50
2019-03-06T18:47:53.911Z,8.43
2019-03-06T18:50:23.530Z,7.93
2019-03-06T18:52:52.303Z,10.17
2019-03-06T18:55:21.772Z,7.43
2019-03-06T18:57:50.337Z,8.27
2019-03-06T19:00:29.259Z,6.73
2019-03-06T19:02:57.718Z,7.20
2019-03-06T19:05:26.210Z,7.23
2019-03-06T19:07:54.631Z,6.27
2019-03-06T19:10:24.692Z,4.80
2019-03-06T19:12:53.435Z,8.73
2019-03-06T19:15:26.001Z,4.90
2019-03-06T19:17:54.561Z,6.90
2019-03-06T19:20:23.688Z,6.23
2019-03-06T19:22:53.267Z,8.27
2019-03-06T19:25:22.332Z,7.83
2019-03-06T19:27:51.020Z,9.30
2019-03-06T19:30:24.888Z,5.60
2019-03-06T19:32:53.835Z,8.00
2019-03-06T19:35:24.131Z,4.97
2019-03-06T19:37:52.662Z,4.93
2019-03-06T19:40:21.436Z,6.07
2019-03-06T19:42:49.952Z,6.37
2019-03-06T19:45:22.815Z,4.87
2019-03-06T19:47:51.332Z,11.57
2019-03-06T19:50:21.391Z,7.93
2019-03-06T19:52:49.970Z,6.43
2019-03-06T19:55:19.743Z,4.73
2019-03-06T19:58:02.390Z,5.70
2019-03-06T20:00:32.489Z,5.57
2019-03-06T20:03:02.192Z,2.93
2019-03-06T20:05:35.979Z,6.03
2019-03-06T20:08:10.549Z,4.53
2019-03-06T20:10:39.534Z,4.03
2019-03-06T20:13:08.837Z,5.50
2019-03-06T20:15:38.355Z,5.77
2019-03-06T20:18:07.253Z,9.73
2019-03-06T20:20:35.837Z,6.30
2019-03-06T20:23:04.445Z,4.37
2019-03-06T20:25:32.959Z,5.03
2019-03-06T20:28:02.081Z,4.27
2019-03-06T20:30:30.585Z,6.23
2019-03-06T20:32:59.056Z,8.27
2019-03-06T20:35:27.974Z,5.60
2019-03-06T20:37:57.464Z,4.17
2019-03-06T20:40:26.344Z,3.00
2019-03-06T20:42:54.755Z,3.20
2019-03-06T20:45:23.267Z,4.07
2019-03-06T20:47:51.941Z,2.83
2019-03-06T20:50:21.039Z,5.13
2019-03-06T20:52:50.470Z,5.27
2019-03-06T20:55:19.418Z,4.50
2019-03-06T20:57:47.915Z,7.07
2019-03-06T21:00:25.413Z,4.77
2019-03-06T21:02:53.998Z,2.90
2019-03-06T21:05:22.856Z,5.00
2019-03-06T21:07:51.315Z,3.93
2019-03-06T21:10:20.895Z,4.90
2019-03-06T21:12:49.679Z,6.73
2019-03-06T21:15:20.479Z,2.70
2019-03-06T21:17:48.936Z,5.20
2019-03-06T21:20:18.969Z,6.00
2019-03-06T21:22:47.468Z,4.03
2019-03-06T21:25:17.948Z,2.97
2019-03-06T21:27:46.468Z,4.80
2019-03-06T21:30:35.542Z,3.73
2019-03-06T21:33:04.287Z,2.50
2019-03-06T21:35:32.777Z,3.67
2019-03-06T21:38:01.385Z,4.67
2019-03-06T21:40:30.105Z,2.73
2019-03-06T21:43:00.310Z,4.30
2019-03-06T21:45:28.771Z,3.90
2019-03-06T21:47:57.763Z,4.07
2019-03-06T21:50:26.468Z,3.37
2019-03-06T21:52:58.314Z,5.43
2019-03-06T21:55:27.020Z,3.07
2019-03-06T21:57:55.554Z,4.00
2019-03-06T22:00:24.947Z,4.63
2019-03-06T22:02:53.398Z,5.80
2019-03-06T22:05:21.940Z,3.63
2019-03-06T22:07:51.278Z,4.73
2019-03-06T22:10:20.059Z,3.57
2019-03-06T22:12:48.545Z,3.37
2019-03-06T22:15:21.774Z,2.13
2019-03-06T22:17:50.264Z,5.77
2019-03-06T22:20:18.795Z,4.97
2019-03-06T22:22:47.266Z,3.40
2019-03-06T22:25:18.049Z,3.97
2019-03-06T22:27:46.476Z,2.20
2019-03-06T22:30:17.969Z,4.87
2019-03-06T22:32:46.472Z,4.97
2019-03-06T22:35:15.093Z,6.00
2019-03-06T22:37:43.527Z,3.30
2019-03-06T22:40:19.403Z,1.83
2019-03-06T22:42:47.849Z,8.20
2019-03-06T22:45:17.621Z,2.47
2019-03-06T22:47:46.166Z,3.10
2019-03-06T22:50:16.954Z,2.30
2019-03-06T22:52:45.573Z,2.67
2019-03-06T22:55:21.045Z,3.70
2019-03-06T22:57:49.604Z,2.73
2019-03-06T23:00:30.396Z,4.83
2019-03-06T23:02:59.262Z,5.00
2019-03-06T23:05:30.340Z,2.47
2019-03-06T23:07:58.779Z,5.47
2019-03-06T23:10:27.235Z,4.73
2019-03-06T23:12:55.712Z,3.10
2019-03-06T23:15:24.093Z,5.87
2019-03-06T23:17:52.585Z,7.67
2019-03-06T23:20:21.023Z,6.77
2019-03-06T23:22:49.431Z,5.90
2019-03-06T23:25:18.328Z,3.27
2019-03-06T23:27:48.507Z,5.83
2019-03-06T23:30:26.494Z,2.97
2019-03-06T23:32:54.912Z,3.70
2019-03-06T23:35:23.325Z,7.50
2019-03-06T23:37:51.841Z,2.23
2019-03-06T23:40:20.241Z,6.20
2019-03-06T23:42:48.661Z,7.43
2019-03-06T23:45:17.170Z,5.07
2019-03-06T23:47:45.669Z,3.97
2019-03-06T23:50:14.166Z,3.03
2019-03-06T23:53:02.106Z,5.57
2019-03-06T23:55:32.121Z,4.07
2019-03-06T23:58:00.597Z,8.07
